sensor_id;sensor_type;location;lat;lon;timestamp;temperature;humidity
53876;DHT22;39789;53.216;5.624;2022-10-26T00:01:28;10.60;99.90
53876;DHT22;39789;53.216;5.624;2022-10-26T00:03:55;10.60;99.90
53876;DHT22;39789;53.216;5.624;2022-10-26T00:06:23;10.60;99.90
53876;DHT22;39789;53.216;5.624;2022-10-26T00:08:56;10.60;99.90
53876;DHT22;39789;53.216;5.624;2022-10-26T00:11:22;10.60;99.90
53876;DHT22;39789;53.216;5.624;2022-10-26T00:13:47;10.70;99.90
53876;DHT22;39789;53.216;5.624;2022-10-26T00:16:17;10.70;99.90
53876;DHT22;39789;53.216;5.624;2022-10-26T00:18:44;10.70;99.90
53876;DHT22;39789;53.216;5.624;2022-10-26T00:21:10;10.70;99.90
53876;DHT22;39789;53.216;5.624;2022-10-26T00:23:36;10.70;99.90
53876;DHT22;39789;53.216;5.624;2022-10-26T00:26:02;10.80;99.90
53876;DHT22;39789;53.216;5.624;2022-10-26T00:28:27;10.70;99.90
53876;DHT22;39789;53.216;5.624;2022-10-26T00:30:53;10.70;99.90
53876;DHT22;39789;53.216;5.624;2022-10-26T00:33:19;10.70;99.90
53876;DHT22;39789;53.216;5.624;2022-10-26T00:35:47;10.70;99.90
53876;DHT22;39789;53.216;5.624;2022-10-26T00:38:13;10.60;99.90
53876;DHT22;39789;53.216;5.624;2022-10-26T00:40:39;10.60;99.90
53876;DHT22;39789;53.216;5.624;2022-10-26T00:43:13;10.60;99.90
53876;DHT22;39789;53.216;5.624;2022-10-26T00:45:41;10.50;99.90
53876;DHT22;39789;53.216;5.624;2022-10-26T00:50:46;10.40;99.90
53876;DHT22;39789;53.216;5.624;2022-10-26T00:53:12;10.40;99.90
53876;DHT22;39789;53.216;5.624;2022-10-26T00:55:42;10.30;99.90
53876;DHT22;39789;53.216;5.624;2022-10-26T00:58:09;10.30;99.90
53876;DHT22;39789;53.216;5.624;2022-10-26T01:00:35;10.30;99.90
53876;DHT22;39789;53.216;5.624;2022-10-26T01:03:04;10.30;99.90
53876;DHT22;39789;53.216;5.624;2022-10-26T01:05:31;10.30;99.90
53876;DHT22;39789;53.216;5.624;2022-10-26T01:07:58;10.20;99.90
53876;DHT22;39789;53.216;5.624;2022-10-26T01:10:25;10.20;99.90
53876;DHT22;39789;53.216;5.624;2022-10-26T01:12:52;10.20;99.90
53876;DHT22;39789;53.216;5.624;2022-10-26T01:15:21;10.20;99.90
53876;DHT22;39789;53.216;5.624;2022-10-26T01:18:12;10.20;99.90
53876;DHT22;39789;53.216;5.624;2022-10-26T01:26:52;10.10;99.90
53876;DHT22;39789;53.216;5.624;2022-10-26T01:32:32;10.00;99.90
53876;DHT22;39789;53.216;5.624;2022-10-26T01:35:08;10.00;99.90
53876;DHT22;39789;53.216;5.624;2022-10-26T01:37:38;10.00;99.90
53876;DHT22;39789;53.216;5.624;2022-10-26T01:40:15;10.00;99.90
53876;DHT22;39789;53.216;5.624;2022-10-26T01:42:46;9.90;99.90
53876;DHT22;39789;53.216;5.624;2022-10-26T01:45:14;9.90;99.90
53876;DHT22;39789;53.216;5.624;2022-10-26T01:47:40;9.90;99.90
53876;DHT22;39789;53.216;5.624;2022-10-26T01:50:07;9.80;99.90
53876;DHT22;39789;53.216;5.624;2022-10-26T01:52:34;9.80;99.90
53876;DHT22;39789;53.216;5.624;2022-10-26T01:55:48;9.80;99.90
53876;DHT22;39789;53.216;5.624;2022-10-26T01:57:50;9.70;99.90
53876;DHT22;39789;53.216;5.624;2022-10-26T02:00:16;9.70;99.90
53876;DHT22;39789;53.216;5.624;2022-10-26T02:03:06;9.70;99.90
53876;DHT22;39789;53.216;5.624;2022-10-26T02:06:04;9.70;99.90
53876;DHT22;39789;53.216;5.624;2022-10-26T02:11:41;9.70;99.90
53876;DHT22;39789;53.216;5.624;2022-10-26T02:14:11;9.70;99.90
53876;DHT22;39789;53.216;5.624;2022-10-26T02:16:48;9.70;99.90
53876;DHT22;39789;53.216;5.624;2022-10-26T02:19:38;9.70;99.90
53876;DHT22;39789;53.216;5.624;2022-10-26T02:22:16;9.70;99.90
53876;DHT22;39789;53.216;5.624;2022-10-26T02:24:43;9.70;99.90
53876;DHT22;39789;53.216;5.624;2022-10-26T02:27:14;9.80;99.90
53876;DHT22;39789;53.216;5.624;2022-10-26T02:29:41;9.80;99.90
53876;DHT22;39789;53.216;5.624;2022-10-26T02:32:08;9.80;99.90
53876;DHT22;39789;53.216;5.624;2022-10-26T02:34:37;9.80;99.90
53876;DHT22;39789;53.216;5.624;2022-10-26T02:37:04;9.90;99.90
53876;DHT22;39789;53.216;5.624;2022-10-26T02:39:31;9.90;99.90
53876;DHT22;39789;53.216;5.624;2022-10-26T02:42:02;10.00;99.90
53876;DHT22;39789;53.216;5.624;2022-10-26T02:44:32;10.00;99.90
53876;DHT22;39789;53.216;5.624;2022-10-26T02:46:59;10.00;99.90
53876;DHT22;39789;53.216;5.624;2022-10-26T02:49:26;10.10;99.90
53876;DHT22;39789;53.216;5.624;2022-10-26T02:52:09;10.10;99.90
53876;DHT22;39789;53.216;5.624;2022-10-26T02:55:00;10.00;99.90
53876;DHT22;39789;53.216;5.624;2022-10-26T02:57:36;9.90;99.90
53876;DHT22;39789;53.216;5.624;2022-10-26T03:00:11;9.80;99.90
53876;DHT22;39789;53.216;5.624;2022-10-26T03:02:37;9.70;99.90
53876;DHT22;39789;53.216;5.624;2022-10-26T03:05:08;9.70;99.90
53876;DHT22;39789;53.216;5.624;2022-10-26T03:07:34;9.70;99.90
53876;DHT22;39789;53.216;5.624;2022-10-26T03:10:00;9.70;99.90
53876;DHT22;39789;53.216;5.624;2022-10-26T03:12:26;9.60;99.90
53876;DHT22;39789;53.216;5.624;2022-10-26T03:14:51;9.60;99.90
53876;DHT22;39789;53.216;5.624;2022-10-26T03:17:17;9.60;99.90
53876;DHT22;39789;53.216;5.624;2022-10-26T03:19:42;9.70;99.90
53876;DHT22;39789;53.216;5.624;2022-10-26T03:22:08;9.80;99.90
53876;DHT22;39789;53.216;5.624;2022-10-26T03:24:33;9.80;99.90
53876;DHT22;39789;53.216;5.624;2022-10-26T03:26:59;9.80;99.90
53876;DHT22;39789;53.216;5.624;2022-10-26T03:29:26;9.80;99.90
53876;DHT22;39789;53.216;5.624;2022-10-26T03:31:51;9.90;99.90
53876;DHT22;39789;53.216;5.624;2022-10-26T03:34:19;9.90;99.90
53876;DHT22;39789;53.216;5.624;2022-10-26T03:36:45;9.90;99.90
53876;DHT22;39789;53.216;5.624;2022-10-26T03:39:11;9.90;99.90
53876;DHT22;39789;53.216;5.624;2022-10-26T03:41:38;9.90;99.90
53876;DHT22;39789;53.216;5.624;2022-10-26T03:44:03;9.90;99.90
53876;DHT22;39789;53.216;5.624;2022-10-26T03:46:29;9.90;99.90
53876;DHT22;39789;53.216;5.624;2022-10-26T03:48:55;9.90;99.90
53876;DHT22;39789;53.216;5.624;2022-10-26T03:51:20;9.90;99.90
53876;DHT22;39789;53.216;5.624;2022-10-26T03:53:46;9.90;99.90
53876;DHT22;39789;53.216;5.624;2022-10-26T03:56:11;9.90;99.90
53876;DHT22;39789;53.216;5.624;2022-10-26T03:58:37;9.90;99.90
53876;DHT22;39789;53.216;5.624;2022-10-26T04:01:02;9.90;99.90
53876;DHT22;39789;53.216;5.624;2022-10-26T04:03:28;10.00;99.90
53876;DHT22;39789;53.216;5.624;2022-10-26T04:05:53;10.00;99.90
53876;DHT22;39789;53.216;5.624;2022-10-26T04:08:19;10.10;99.90
53876;DHT22;39789;53.216;5.624;2022-10-26T04:10:45;10.20;99.90
53876;DHT22;39789;53.216;5.624;2022-10-26T04:13:11;10.20;99.90
53876;DHT22;39789;53.216;5.624;2022-10-26T04:15:37;10.30;99.90
53876;DHT22;39789;53.216;5.624;2022-10-26T04:18:03;10.40;99.90
53876;DHT22;39789;53.216;5.624;2022-10-26T04:20:30;10.40;99.90
53876;DHT22;39789;53.216;5.624;2022-10-26T04:23:02;10.50;99.90
53876;DHT22;39789;53.216;5.624;2022-10-26T04:25:28;10.50;99.90
53876;DHT22;39789;53.216;5.624;2022-10-26T04:27:54;10.60;99.90
53876;DHT22;39789;53.216;5.624;2022-10-26T04:30:20;10.60;99.90
53876;DHT22;39789;53.216;5.624;2022-10-26T04:32:45;10.60;99.90
53876;DHT22;39789;53.216;5.624;2022-10-26T04:35:12;10.60;99.90
53876;DHT22;39789;53.216;5.624;2022-10-26T04:37:41;10.60;99.90
53876;DHT22;39789;53.216;5.624;2022-10-26T04:40:07;10.70;99.90
53876;DHT22;39789;53.216;5.624;2022-10-26T04:42:43;10.70;99.90
53876;DHT22;39789;53.216;5.624;2022-10-26T04:45:09;10.70;99.90
53876;DHT22;39789;53.216;5.624;2022-10-26T04:47:35;10.70;99.90
53876;DHT22;39789;53.216;5.624;2022-10-26T04:50:01;10.70;99.90
53876;DHT22;39789;53.216;5.624;2022-10-26T04:52:26;10.70;99.90
53876;DHT22;39789;53.216;5.624;2022-10-26T04:54:53;10.70;99.90
53876;DHT22;39789;53.216;5.624;2022-10-26T04:57:19;10.70;99.90
53876;DHT22;39789;53.216;5.624;2022-10-26T04:59:44;10.70;99.90
53876;DHT22;39789;53.216;5.624;2022-10-26T05:02:10;10.70;99.90
53876;DHT22;39789;53.216;5.624;2022-10-26T05:04:35;10.70;99.90
53876;DHT22;39789;53.216;5.624;2022-10-26T05:07:01;10.70;99.90
53876;DHT22;39789;53.216;5.624;2022-10-26T05:09:26;10.70;99.90
53876;DHT22;39789;53.216;5.624;2022-10-26T05:11:52;10.70;99.90
53876;DHT22;39789;53.216;5.624;2022-10-26T05:14:17;10.70;99.90
53876;DHT22;39789;53.216;5.624;2022-10-26T05:16:43;10.70;99.90
53876;DHT22;39789;53.216;5.624;2022-10-26T05:19:09;10.70;99.90
53876;DHT22;39789;53.216;5.624;2022-10-26T05:21:35;10.70;99.90
53876;DHT22;39789;53.216;5.624;2022-10-26T05:24:01;10.70;99.90
53876;DHT22;39789;53.216;5.624;2022-10-26T05:26:27;10.70;99.90
53876;DHT22;39789;53.216;5.624;2022-10-26T05:28:53;10.70;99.90
53876;DHT22;39789;53.216;5.624;2022-10-26T05:31:19;10.70;99.90
53876;DHT22;39789;53.216;5.624;2022-10-26T05:33:49;10.70;99.90
53876;DHT22;39789;53.216;5.624;2022-10-26T05:36:16;10.70;99.90
53876;DHT22;39789;53.216;5.624;2022-10-26T05:38:42;10.60;99.90
53876;DHT22;39789;53.216;5.624;2022-10-26T05:41:07;10.60;99.90
53876;DHT22;39789;53.216;5.624;2022-10-26T05:43:33;10.60;99.90
53876;DHT22;39789;53.216;5.624;2022-10-26T05:45:58;10.60;99.90
53876;DHT22;39789;53.216;5.624;2022-10-26T05:48:24;10.60;99.90
53876;DHT22;39789;53.216;5.624;2022-10-26T05:50:49;10.60;99.90
53876;DHT22;39789;53.216;5.624;2022-10-26T05:53:15;10.70;99.90
53876;DHT22;39789;53.216;5.624;2022-10-26T05:55:41;10.70;99.90
53876;DHT22;39789;53.216;5.624;2022-10-26T05:58:12;10.70;99.90
53876;DHT22;39789;53.216;5.624;2022-10-26T06:06:11;10.60;99.90
53876;DHT22;39789;53.216;5.624;2022-10-26T06:08:38;10.70;99.90
53876;DHT22;39789;53.216;5.624;2022-10-26T06:11:04;10.70;99.90
53876;DHT22;39789;53.216;5.624;2022-10-26T06:13:31;10.70;99.90
53876;DHT22;39789;53.216;5.624;2022-10-26T06:21:36;10.60;99.90
53876;DHT22;39789;53.216;5.624;2022-10-26T06:24:53;10.70;99.90
53876;DHT22;39789;53.216;5.624;2022-10-26T06:27:09;10.60;99.90
53876;DHT22;39789;53.216;5.624;2022-10-26T06:29:57;10.60;99.90
53876;DHT22;39789;53.216;5.624;2022-10-26T06:32:23;10.70;99.90
53876;DHT22;39789;53.216;5.624;2022-10-26T06:34:53;10.70;99.90
53876;DHT22;39789;53.216;5.624;2022-10-26T06:37:23;10.70;99.90
53876;DHT22;39789;53.216;5.624;2022-10-26T06:39:50;10.70;99.90
53876;DHT22;39789;53.216;5.624;2022-10-26T06:42:17;10.70;99.90
53876;DHT22;39789;53.216;5.624;2022-10-26T06:44:42;10.70;99.90
53876;DHT22;39789;53.216;5.624;2022-10-26T06:47:24;10.70;99.90
53876;DHT22;39789;53.216;5.624;2022-10-26T06:52:48;10.80;99.90
53876;DHT22;39789;53.216;5.624;2022-10-26T06:55:15;10.80;99.90
53876;DHT22;39789;53.216;5.624;2022-10-26T06:57:42;10.80;99.90
53876;DHT22;39789;53.216;5.624;2022-10-26T07:02:40;10.90;99.90
53876;DHT22;39789;53.216;5.624;2022-10-26T07:05:06;11.00;99.90
53876;DHT22;39789;53.216;5.624;2022-10-26T07:07:40;11.00;99.90
53876;DHT22;39789;53.216;5.624;2022-10-26T07:10:06;11.00;99.90
53876;DHT22;39789;53.216;5.624;2022-10-26T07:12:32;11.10;99.90
53876;DHT22;39789;53.216;5.624;2022-10-26T07:14:58;11.10;99.90
53876;DHT22;39789;53.216;5.624;2022-10-26T07:17:25;11.10;99.90
53876;DHT22;39789;53.216;5.624;2022-10-26T07:19:53;11.10;99.90
53876;DHT22;39789;53.216;5.624;2022-10-26T07:22:18;11.20;99.90
53876;DHT22;39789;53.216;5.624;2022-10-26T07:24:44;11.20;99.90
53876;DHT22;39789;53.216;5.624;2022-10-26T07:27:10;11.30;99.90
53876;DHT22;39789;53.216;5.624;2022-10-26T07:29:35;11.40;99.90
53876;DHT22;39789;53.216;5.624;2022-10-26T07:32:01;11.40;99.90
53876;DHT22;39789;53.216;5.624;2022-10-26T07:34:27;11.40;99.90
53876;DHT22;39789;53.216;5.624;2022-10-26T07:36:52;11.50;99.90
53876;DHT22;39789;53.216;5.624;2022-10-26T07:39:18;11.50;99.90
53876;DHT22;39789;53.216;5.624;2022-10-26T07:41:44;11.50;99.90
53876;DHT22;39789;53.216;5.624;2022-10-26T07:44:10;11.50;99.90
53876;DHT22;39789;53.216;5.624;2022-10-26T07:46:36;11.50;99.90
53876;DHT22;39789;53.216;5.624;2022-10-26T07:49:01;11.60;99.90
53876;DHT22;39789;53.216;5.624;2022-10-26T07:51:27;11.60;99.90
53876;DHT22;39789;53.216;5.624;2022-10-26T07:53:53;11.70;99.90
53876;DHT22;39789;53.216;5.624;2022-10-26T07:56:18;11.70;99.90
53876;DHT22;39789;53.216;5.624;2022-10-26T07:58:44;11.70;99.90
53876;DHT22;39789;53.216;5.624;2022-10-26T08:01:14;11.70;99.90
53876;DHT22;39789;53.216;5.624;2022-10-26T08:03:40;11.80;99.90
53876;DHT22;39789;53.216;5.624;2022-10-26T08:06:06;11.90;99.90
53876;DHT22;39789;53.216;5.624;2022-10-26T08:08:34;12.00;99.90
53876;DHT22;39789;53.216;5.624;2022-10-26T08:11:02;12.10;99.90
53876;DHT22;39789;53.216;5.624;2022-10-26T08:13:28;12.20;99.90
53876;DHT22;39789;53.216;5.624;2022-10-26T08:16:02;12.30;99.90
53876;DHT22;39789;53.216;5.624;2022-10-26T08:18:28;12.40;99.90
53876;DHT22;39789;53.216;5.624;2022-10-26T08:20:54;12.50;99.90
53876;DHT22;39789;53.216;5.624;2022-10-26T08:23:20;12.50;99.90
53876;DHT22;39789;53.216;5.624;2022-10-26T08:25:46;12.60;99.90
53876;DHT22;39789;53.216;5.624;2022-10-26T08:28:11;12.70;99.90
53876;DHT22;39789;53.216;5.624;2022-10-26T08:30:37;12.80;99.90
53876;DHT22;39789;53.216;5.624;2022-10-26T08:33:05;12.90;99.90
53876;DHT22;39789;53.216;5.624;2022-10-26T08:35:31;12.90;99.90
53876;DHT22;39789;53.216;5.624;2022-10-26T08:37:57;13.00;99.90
53876;DHT22;39789;53.216;5.624;2022-10-26T08:40:32;13.00;99.90
53876;DHT22;39789;53.216;5.624;2022-10-26T08:48:18;13.20;99.90
53876;DHT22;39789;53.216;5.624;2022-10-26T08:50:46;13.30;99.90
53876;DHT22;39789;53.216;5.624;2022-10-26T09:02:42;13.90;99.90
53876;DHT22;39789;53.216;5.624;2022-10-26T09:05:37;14.00;99.90
53876;DHT22;39789;53.216;5.624;2022-10-26T09:10:47;13.90;99.90
53876;DHT22;39789;53.216;5.624;2022-10-26T09:13:32;14.00;99.90
53876;DHT22;39789;53.216;5.624;2022-10-26T09:19:47;14.10;99.90
53876;DHT22;39789;53.216;5.624;2022-10-26T09:22:40;14.20;99.90
53876;DHT22;39789;53.216;5.624;2022-10-26T09:25:22;14.30;99.90
53876;DHT22;39789;53.216;5.624;2022-10-26T09:27:53;14.40;99.90
53876;DHT22;39789;53.216;5.624;2022-10-26T09:30:20;14.50;99.90
53876;DHT22;39789;53.216;5.624;2022-10-26T09:33:03;14.60;99.90
53876;DHT22;39789;53.216;5.624;2022-10-26T09:38:38;14.70;99.90
53876;DHT22;39789;53.216;5.624;2022-10-26T09:41:23;14.80;99.90
53876;DHT22;39789;53.216;5.624;2022-10-26T09:46:33;15.00;99.90
53876;DHT22;39789;53.216;5.624;2022-10-26T09:49:06;14.90;99.90
53876;DHT22;39789;53.216;5.624;2022-10-26T09:51:36;15.00;99.90
53876;DHT22;39789;53.216;5.624;2022-10-26T09:54:08;15.00;99.90
53876;DHT22;39789;53.216;5.624;2022-10-26T09:56:55;15.00;99.90
53876;DHT22;39789;53.216;5.624;2022-10-26T09:59:24;15.00;99.90
53876;DHT22;39789;53.216;5.624;2022-10-26T10:05:34;15.30;99.90
53876;DHT22;39789;53.216;5.624;2022-10-26T10:08:18;15.50;99.90
53876;DHT22;39789;53.216;5.624;2022-10-26T10:11:04;15.60;99.90
53876;DHT22;39789;53.216;5.624;2022-10-26T10:13:32;15.60;99.90
53876;DHT22;39789;53.216;5.624;2022-10-26T10:16:19;15.60;99.90
53876;DHT22;39789;53.216;5.624;2022-10-26T10:18:56;15.70;99.90
53876;DHT22;39789;53.216;5.624;2022-10-26T10:21:47;15.70;99.90
53876;DHT22;39789;53.216;5.624;2022-10-26T10:26:57;15.60;99.90
53876;DHT22;39789;53.216;5.624;2022-10-26T10:31:57;15.70;99.90
53876;DHT22;39789;53.216;5.624;2022-10-26T10:34:23;15.70;99.90
53876;DHT22;39789;53.216;5.624;2022-10-26T10:36:49;15.70;99.90
53876;DHT22;39789;53.216;5.624;2022-10-26T10:39:38;15.80;99.90
53876;DHT22;39789;53.216;5.624;2022-10-26T10:42:16;16.00;99.90
53876;DHT22;39789;53.216;5.624;2022-10-26T10:44:44;16.00;99.90
53876;DHT22;39789;53.216;5.624;2022-10-26T10:47:18;16.00;99.90
53876;DHT22;39789;53.216;5.624;2022-10-26T10:50:01;16.10;99.90
53876;DHT22;39789;53.216;5.624;2022-10-26T10:52:30;16.10;99.90
53876;DHT22;39789;53.216;5.624;2022-10-26T11:00:12;16.20;99.90
53876;DHT22;39789;53.216;5.624;2022-10-26T11:11:08;16.30;99.90
53876;DHT22;39789;53.216;5.624;2022-10-26T11:13:43;16.30;99.90
53876;DHT22;39789;53.216;5.624;2022-10-26T11:16:15;16.30;99.90
53876;DHT22;39789;53.216;5.624;2022-10-26T11:19:00;16.40;99.90
53876;DHT22;39789;53.216;5.624;2022-10-26T11:21:30;16.40;99.90
53876;DHT22;39789;53.216;5.624;2022-10-26T11:27:29;16.40;99.90
53876;DHT22;39789;53.216;5.624;2022-10-26T11:33:08;16.40;99.90
53876;DHT22;39789;53.216;5.624;2022-10-26T11:39:21;16.50;99.90
53876;DHT22;39789;53.216;5.624;2022-10-26T11:42:04;16.60;99.90
53876;DHT22;39789;53.216;5.624;2022-10-26T11:44:36;16.50;99.90
53876;DHT22;39789;53.216;5.624;2022-10-26T11:47:31;16.50;99.90
53876;DHT22;39789;53.216;5.624;2022-10-26T11:50:16;16.60;99.90
53876;DHT22;39789;53.216;5.624;2022-10-26T11:58:36;16.70;99.90
53876;DHT22;39789;53.216;5.624;2022-10-26T12:01:08;16.70;99.90
53876;DHT22;39789;53.216;5.624;2022-10-26T12:07:30;16.70;99.90
53876;DHT22;39789;53.216;5.624;2022-10-26T12:09:57;16.70;99.90
53876;DHT22;39789;53.216;5.624;2022-10-26T12:12:45;16.80;99.90
53876;DHT22;39789;53.216;5.624;2022-10-26T12:15:54;16.80;99.90
53876;DHT22;39789;53.216;5.624;2022-10-26T12:18:25;16.90;99.90
53876;DHT22;39789;53.216;5.624;2022-10-26T12:21:03;16.90;99.90
53876;DHT22;39789;53.216;5.624;2022-10-26T12:29:23;17.00;99.90
53876;DHT22;39789;53.216;5.624;2022-10-26T12:31:49;16.90;99.90
53876;DHT22;39789;53.216;5.624;2022-10-26T12:39:35;17.10;99.90
53876;DHT22;39789;53.216;5.624;2022-10-26T12:44:39;17.20;99.90
53876;DHT22;39789;53.216;5.624;2022-10-26T13:01:11;17.30;99.90
53876;DHT22;39789;53.216;5.624;2022-10-26T13:09:28;17.70;99.90
53876;DHT22;39789;53.216;5.624;2022-10-26T13:11:59;17.20;99.90
53876;DHT22;39789;53.216;5.624;2022-10-26T13:14:33;17.20;99.90
53876;DHT22;39789;53.216;5.624;2022-10-26T13:17:00;17.20;99.90
53876;DHT22;39789;53.216;5.624;2022-10-26T13:19:46;17.10;99.90
53876;DHT22;39789;53.216;5.624;2022-10-26T13:22:14;17.20;99.90
53876;DHT22;39789;53.216;5.624;2022-10-26T13:24:59;17.20;99.90
53876;DHT22;39789;53.216;5.624;2022-10-26T13:32:54;17.40;99.90
53876;DHT22;39789;53.216;5.624;2022-10-26T13:35:22;17.40;99.90
53876;DHT22;39789;53.216;5.624;2022-10-26T13:37:50;17.50;99.90
53876;DHT22;39789;53.216;5.624;2022-10-26T13:40:22;17.50;99.90
53876;DHT22;39789;53.216;5.624;2022-10-26T13:43:02;17.50;99.90
53876;DHT22;39789;53.216;5.624;2022-10-26T13:45:31;17.50;99.90
53876;DHT22;39789;53.216;5.624;2022-10-26T13:48:05;17.60;99.90
53876;DHT22;39789;53.216;5.624;2022-10-26T13:50:55;17.60;99.90
53876;DHT22;39789;53.216;5.624;2022-10-26T13:53:31;17.50;99.90
53876;DHT22;39789;53.216;5.624;2022-10-26T13:56:13;17.30;99.90
53876;DHT22;39789;53.216;5.624;2022-10-26T13:58:51;17.30;99.90
53876;DHT22;39789;53.216;5.624;2022-10-26T14:01:20;17.20;99.90
53876;DHT22;39789;53.216;5.624;2022-10-26T14:03:47;17.20;99.90
53876;DHT22;39789;53.216;5.624;2022-10-26T14:06:26;17.30;99.90
53876;DHT22;39789;53.216;5.624;2022-10-26T14:08:56;17.30;99.90
53876;DHT22;39789;53.216;5.624;2022-10-26T14:11:51;17.30;99.90
53876;DHT22;39789;53.216;5.624;2022-10-26T14:14:30;17.20;99.90
53876;DHT22;39789;53.216;5.624;2022-10-26T14:16:56;17.20;99.90
53876;DHT22;39789;53.216;5.624;2022-10-26T14:19:33;17.30;99.90
53876;DHT22;39789;53.216;5.624;2022-10-26T14:21:59;17.10;99.90
53876;DHT22;39789;53.216;5.624;2022-10-26T14:24:33;17.20;99.90
53876;DHT22;39789;53.216;5.624;2022-10-26T14:27:02;17.10;99.90
53876;DHT22;39789;53.216;5.624;2022-10-26T14:29:31;17.20;99.90
53876;DHT22;39789;53.216;5.624;2022-10-26T14:31:57;17.20;99.90
53876;DHT22;39789;53.216;5.624;2022-10-26T14:34:23;17.40;99.90
53876;DHT22;39789;53.216;5.624;2022-10-26T14:36:57;17.10;99.90
53876;DHT22;39789;53.216;5.624;2022-10-26T14:39:34;17.00;99.90
53876;DHT22;39789;53.216;5.624;2022-10-26T14:42:18;17.00;99.90
53876;DHT22;39789;53.216;5.624;2022-10-26T14:44:46;16.90;99.90
53876;DHT22;39789;53.216;5.624;2022-10-26T14:47:14;16.90;99.90
53876;DHT22;39789;53.216;5.624;2022-10-26T14:49:44;16.50;99.90
53876;DHT22;39789;53.216;5.624;2022-10-26T14:52:19;16.80;99.90
53876;DHT22;39789;53.216;5.624;2022-10-26T14:55:00;16.80;99.90
53876;DHT22;39789;53.216;5.624;2022-10-26T14:57:38;16.70;99.90
53876;DHT22;39789;53.216;5.624;2022-10-26T15:00:16;16.60;99.90
53876;DHT22;39789;53.216;5.624;2022-10-26T15:02:56;16.60;99.90
53876;DHT22;39789;53.216;5.624;2022-10-26T15:05:30;16.60;99.90
53876;DHT22;39789;53.216;5.624;2022-10-26T15:07:58;16.50;99.90
53876;DHT22;39789;53.216;5.624;2022-10-26T15:13:17;16.40;99.90
53876;DHT22;39789;53.216;5.624;2022-10-26T15:15:48;16.30;99.90
53876;DHT22;39789;53.216;5.624;2022-10-26T15:18:26;16.30;99.90
53876;DHT22;39789;53.216;5.624;2022-10-26T15:20:54;16.30;99.90
53876;DHT22;39789;53.216;5.624;2022-10-26T15:23:22;16.30;99.90
53876;DHT22;39789;53.216;5.624;2022-10-26T15:25:55;16.30;99.90
53876;DHT22;39789;53.216;5.624;2022-10-26T15:28:38;16.20;99.90
53876;DHT22;39789;53.216;5.624;2022-10-26T15:36:21;16.10;99.90
53876;DHT22;39789;53.216;5.624;2022-10-26T15:38:51;16.10;99.90
53876;DHT22;39789;53.216;5.624;2022-10-26T15:41:22;16.00;99.90
53876;DHT22;39789;53.216;5.624;2022-10-26T15:43:51;16.00;99.90
53876;DHT22;39789;53.216;5.624;2022-10-26T15:46:18;16.00;99.90
53876;DHT22;39789;53.216;5.624;2022-10-26T15:49:13;16.00;99.90
53876;DHT22;39789;53.216;5.624;2022-10-26T15:51:34;16.00;99.90
53876;DHT22;39789;53.216;5.624;2022-10-26T15:54:03;16.00;99.90
53876;DHT22;39789;53.216;5.624;2022-10-26T15:56:29;16.00;99.90
53876;DHT22;39789;53.216;5.624;2022-10-26T15:58:56;16.00;99.90
53876;DHT22;39789;53.216;5.624;2022-10-26T16:01:27;16.00;99.90
53876;DHT22;39789;53.216;5.624;2022-10-26T16:03:53;16.00;99.90
53876;DHT22;39789;53.216;5.624;2022-10-26T16:06:25;16.40;99.90
53876;DHT22;39789;53.216;5.624;2022-10-26T16:08:52;16.00;99.90
53876;DHT22;39789;53.216;5.624;2022-10-26T16:11:20;15.90;99.90
53876;DHT22;39789;53.216;5.624;2022-10-26T16:13:46;15.80;99.90
53876;DHT22;39789;53.216;5.624;2022-10-26T16:16:13;15.80;99.90
53876;DHT22;39789;53.216;5.624;2022-10-26T16:18:41;15.70;99.90
53876;DHT22;39789;53.216;5.624;2022-10-26T16:21:17;15.70;99.90
53876;DHT22;39789;53.216;5.624;2022-10-26T16:23:49;15.60;99.90
53876;DHT22;39789;53.216;5.624;2022-10-26T16:26:16;15.60;99.90
53876;DHT22;39789;53.216;5.624;2022-10-26T16:28:42;15.50;99.90
53876;DHT22;39789;53.216;5.624;2022-10-26T16:31:14;15.50;99.90
53876;DHT22;39789;53.216;5.624;2022-10-26T16:33:40;15.50;99.90
53876;DHT22;39789;53.216;5.624;2022-10-26T16:36:07;15.50;99.90
53876;DHT22;39789;53.216;5.624;2022-10-26T16:38:33;15.50;99.90
53876;DHT22;39789;53.216;5.624;2022-10-26T16:41:11;15.50;99.90
53876;DHT22;39789;53.216;5.624;2022-10-26T16:43:43;15.50;99.90
53876;DHT22;39789;53.216;5.624;2022-10-26T16:46:17;15.50;99.90
53876;DHT22;39789;53.216;5.624;2022-10-26T16:48:45;15.50;99.90
53876;DHT22;39789;53.216;5.624;2022-10-26T16:51:22;15.50;99.90
53876;DHT22;39789;53.216;5.624;2022-10-26T16:53:52;15.50;99.90
53876;DHT22;39789;53.216;5.624;2022-10-26T16:56:23;15.50;99.90
53876;DHT22;39789;53.216;5.624;2022-10-26T16:58:49;16.10;99.90
53876;DHT22;39789;53.216;5.624;2022-10-26T17:01:16;15.60;99.90
53876;DHT22;39789;53.216;5.624;2022-10-26T17:03:46;15.60;99.90
53876;DHT22;39789;53.216;5.624;2022-10-26T17:06:15;15.60;99.90
53876;DHT22;39789;53.216;5.624;2022-10-26T17:11:55;15.40;99.90
53876;DHT22;39789;53.216;5.624;2022-10-26T17:14:20;15.40;99.90
53876;DHT22;39789;53.216;5.624;2022-10-26T17:16:46;15.30;99.90
53876;DHT22;39789;53.216;5.624;2022-10-26T17:19:12;15.90;99.90
53876;DHT22;39789;53.216;5.624;2022-10-26T17:21:38;15.20;99.90
53876;DHT22;39789;53.216;5.624;2022-10-26T17:24:05;15.70;99.90
53876;DHT22;39789;53.216;5.624;2022-10-26T17:26:31;15.00;99.90
53876;DHT22;39789;53.216;5.624;2022-10-26T17:28:57;15.00;99.90
53876;DHT22;39789;53.216;5.624;2022-10-26T17:31:24;14.20;99.90
53876;DHT22;39789;53.216;5.624;2022-10-26T17:33:50;15.00;99.90
53876;DHT22;39789;53.216;5.624;2022-10-26T17:36:18;14.80;99.90
53876;DHT22;39789;53.216;5.624;2022-10-26T17:38:46;14.70;99.90
53876;DHT22;39789;53.216;5.624;2022-10-26T17:41:15;14.60;99.90
53876;DHT22;39789;53.216;5.624;2022-10-26T17:43:41;14.60;99.90
53876;DHT22;39789;53.216;5.624;2022-10-26T17:46:10;14.50;99.90
53876;DHT22;39789;53.216;5.624;2022-10-26T17:48:36;14.50;99.90
53876;DHT22;39789;53.216;5.624;2022-10-26T17:54:43;14.50;99.90
53876;DHT22;39789;53.216;5.624;2022-10-26T17:57:10;14.40;99.90
53876;DHT22;39789;53.216;5.624;2022-10-26T18:03:16;14.50;99.90
53876;DHT22;39789;53.216;5.624;2022-10-26T18:05:48;14.50;99.90
53876;DHT22;39789;53.216;5.624;2022-10-26T18:08:13;14.50;99.90
53876;DHT22;39789;53.216;5.624;2022-10-26T18:10:45;14.50;99.90
53876;DHT22;39789;53.216;5.624;2022-10-26T18:13:11;14.50;99.90
53876;DHT22;39789;53.216;5.624;2022-10-26T18:15:36;14.50;99.90
53876;DHT22;39789;53.216;5.624;2022-10-26T18:18:02;14.50;99.90
53876;DHT22;39789;53.216;5.624;2022-10-26T18:20:28;14.50;99.90
53876;DHT22;39789;53.216;5.624;2022-10-26T18:22:55;14.50;99.90
53876;DHT22;39789;53.216;5.624;2022-10-26T18:25:22;14.50;99.90
53876;DHT22;39789;53.216;5.624;2022-10-26T18:27:48;14.40;99.90
53876;DHT22;39789;53.216;5.624;2022-10-26T18:30:14;14.40;99.90